sensor_id;sensor_type;location;lat;lon;timestamp;temperature;humidity
61153;DHT22;47030;50.732;4.286;2022-09-30T00:02:08;8.10;99.90
61153;DHT22;47030;50.732;4.286;2022-09-30T00:04:39;8.10;99.90
61153;DHT22;47030;50.732;4.286;2022-09-30T00:07:15;8.20;99.90
61153;DHT22;47030;50.732;4.286;2022-09-30T00:09:41;8.20;99.90
61153;DHT22;47030;50.732;4.286;2022-09-30T00:12:17;8.10;99.90
61153;DHT22;47030;50.732;4.286;2022-09-30T00:14:46;8.00;99.90
61153;DHT22;47030;50.732;4.286;2022-09-30T00:17:21;8.00;99.90
61153;DHT22;47030;50.732;4.286;2022-09-30T00:19:51;7.90;99.90
61153;DHT22;47030;50.732;4.286;2022-09-30T00:22:19;7.90;99.90
61153;DHT22;47030;50.732;4.286;2022-09-30T00:24:47;7.80;99.90
61153;DHT22;47030;50.732;4.286;2022-09-30T00:27:13;7.80;99.90
61153;DHT22;47030;50.732;4.286;2022-09-30T00:29:47;7.80;99.90
61153;DHT22;47030;50.732;4.286;2022-09-30T00:32:23;7.80;99.90
61153;DHT22;47030;50.732;4.286;2022-09-30T00:34:53;7.80;99.90
61153;DHT22;47030;50.732;4.286;2022-09-30T00:37:22;7.40;99.90
61153;DHT22;47030;50.732;4.286;2022-09-30T00:39:48;7.80;99.90
61153;DHT22;47030;50.732;4.286;2022-09-30T00:42:21;7.70;99.90
61153;DHT22;47030;50.732;4.286;2022-09-30T00:44:59;7.90;99.90
61153;DHT22;47030;50.732;4.286;2022-09-30T00:47:51;7.90;99.90
61153;DHT22;47030;50.732;4.286;2022-09-30T00:53:15;7.70;99.90
61153;DHT22;47030;50.732;4.286;2022-09-30T00:56:00;7.60;99.90
61153;DHT22;47030;50.732;4.286;2022-09-30T00:58:30;7.70;99.90
61153;DHT22;47030;50.732;4.286;2022-09-30T01:01:02;7.70;99.90
61153;DHT22;47030;50.732;4.286;2022-09-30T01:03:41;7.60;99.90
61153;DHT22;47030;50.732;4.286;2022-09-30T01:06:15;8.20;99.90
61153;DHT22;47030;50.732;4.286;2022-09-30T01:08:44;7.60;99.90
61153;DHT22;47030;50.732;4.286;2022-09-30T01:11:11;7.70;99.90
61153;DHT22;47030;50.732;4.286;2022-09-30T01:13:38;7.70;99.90
61153;DHT22;47030;50.732;4.286;2022-09-30T01:38:29;7.40;99.90
61153;DHT22;47030;50.732;4.286;2022-09-30T01:41:13;7.40;99.90
61153;DHT22;47030;50.732;4.286;2022-09-30T01:43:53;7.40;99.90
61153;DHT22;47030;50.732;4.286;2022-09-30T01:49:29;7.30;99.90
61153;DHT22;47030;50.732;4.286;2022-09-30T01:52:15;7.40;99.90
61153;DHT22;47030;50.732;4.286;2022-09-30T01:54:52;7.30;99.90
61153;DHT22;47030;50.732;4.286;2022-09-30T01:57:30;7.70;99.90
61153;DHT22;47030;50.732;4.286;2022-09-30T02:00:02;7.30;99.90
61153;DHT22;47030;50.732;4.286;2022-09-30T02:02:47;6.90;99.90
61153;DHT22;47030;50.732;4.286;2022-09-30T02:05:26;7.40;99.90
61153;DHT22;47030;50.732;4.286;2022-09-30T02:07:59;7.30;99.90
61153;DHT22;47030;50.732;4.286;2022-09-30T02:13:33;7.10;99.90
61153;DHT22;47030;50.732;4.286;2022-09-30T02:15:56;7.10;99.90
61153;DHT22;47030;50.732;4.286;2022-09-30T02:21:38;7.00;99.90
61153;DHT22;47030;50.732;4.286;2022-09-30T02:24:15;7.00;99.90
61153;DHT22;47030;50.732;4.286;2022-09-30T02:26:47;7.00;99.90
61153;DHT22;47030;50.732;4.286;2022-09-30T02:29:29;7.10;99.90
61153;DHT22;47030;50.732;4.286;2022-09-30T02:32:00;7.30;99.90
61153;DHT22;47030;50.732;4.286;2022-09-30T02:34:34;7.00;99.90
61153;DHT22;47030;50.732;4.286;2022-09-30T02:37:09;7.00;99.90
61153;DHT22;47030;50.732;4.286;2022-09-30T02:40:03;7.00;99.90
61153;DHT22;47030;50.732;4.286;2022-09-30T02:42:38;7.00;99.90
61153;DHT22;47030;50.732;4.286;2022-09-30T02:45:23;6.90;99.90
61153;DHT22;47030;50.732;4.286;2022-09-30T02:53:55;6.90;99.90
61153;DHT22;47030;50.732;4.286;2022-09-30T02:59:16;7.00;99.90
61153;DHT22;47030;50.732;4.286;2022-09-30T03:01:45;6.50;99.90
61153;DHT22;47030;50.732;4.286;2022-09-30T03:04:14;6.90;99.90
61153;DHT22;47030;50.732;4.286;2022-09-30T03:06:47;6.90;99.90
61153;DHT22;47030;50.732;4.286;2022-09-30T03:09:34;7.20;99.90
61153;DHT22;47030;50.732;4.286;2022-09-30T03:12:27;6.90;99.90
61153;DHT22;47030;50.732;4.286;2022-09-30T03:29:42;6.80;99.90
61153;DHT22;47030;50.732;4.286;2022-09-30T03:37:37;6.70;99.90
61153;DHT22;47030;50.732;4.286;2022-09-30T03:45:40;6.60;99.90
61153;DHT22;47030;50.732;4.286;2022-09-30T03:48:14;6.50;99.90
61153;DHT22;47030;50.732;4.286;2022-09-30T03:50:40;6.30;99.90
61153;DHT22;47030;50.732;4.286;2022-09-30T03:53:11;6.50;99.90
61153;DHT22;47030;50.732;4.286;2022-09-30T03:55:50;6.70;99.90
61153;DHT22;47030;50.732;4.286;2022-09-30T03:58:20;6.70;99.90
61153;DHT22;47030;50.732;4.286;2022-09-30T04:00:53;6.60;99.90
61153;DHT22;47030;50.732;4.286;2022-09-30T04:03:21;6.60;99.90
61153;DHT22;47030;50.732;4.286;2022-09-30T04:05:50;6.50;99.90
61153;DHT22;47030;50.732;4.286;2022-09-30T04:08:19;6.40;99.90
61153;DHT22;47030;50.732;4.286;2022-09-30T04:10:47;6.50;99.90
61153;DHT22;47030;50.732;4.286;2022-09-30T04:13:16;6.40;99.90
61153;DHT22;47030;50.732;4.286;2022-09-30T04:15:54;6.40;99.90
61153;DHT22;47030;50.732;4.286;2022-09-30T04:18:20;6.70;99.90
61153;DHT22;47030;50.732;4.286;2022-09-30T04:20:46;6.30;99.90
61153;DHT22;47030;50.732;4.286;2022-09-30T04:23:12;6.30;99.90
61153;DHT22;47030;50.732;4.286;2022-09-30T04:25:40;6.40;99.90
61153;DHT22;47030;50.732;4.286;2022-09-30T04:28:06;6.70;99.90
61153;DHT22;47030;50.732;4.286;2022-09-30T04:30:32;7.00;99.90
61153;DHT22;47030;50.732;4.286;2022-09-30T04:32:58;7.10;99.90
61153;DHT22;47030;50.732;4.286;2022-09-30T04:35:26;6.40;99.90
61153;DHT22;47030;50.732;4.286;2022-09-30T04:37:54;6.80;99.90
61153;DHT22;47030;50.732;4.286;2022-09-30T04:40:22;6.30;99.90
61153;DHT22;47030;50.732;4.286;2022-09-30T04:42:47;6.20;99.90
61153;DHT22;47030;50.732;4.286;2022-09-30T04:45:13;6.20;99.90
61153;DHT22;47030;50.732;4.286;2022-09-30T04:47:43;6.10;99.90
61153;DHT22;47030;50.732;4.286;2022-09-30T04:50:12;6.00;99.90
61153;DHT22;47030;50.732;4.286;2022-09-30T04:52:43;6.00;99.90
61153;DHT22;47030;50.732;4.286;2022-09-30T04:55:10;6.10;99.90
61153;DHT22;47030;50.732;4.286;2022-09-30T04:57:36;6.10;99.90
61153;DHT22;47030;50.732;4.286;2022-09-30T05:00:03;6.10;99.90
61153;DHT22;47030;50.732;4.286;2022-09-30T05:02:30;6.10;99.90
61153;DHT22;47030;50.732;4.286;2022-09-30T05:04:56;6.20;99.90
61153;DHT22;47030;50.732;4.286;2022-09-30T05:07:24;6.10;99.90
61153;DHT22;47030;50.732;4.286;2022-09-30T05:09:51;6.10;99.90
61153;DHT22;47030;50.732;4.286;2022-09-30T05:12:17;6.20;99.90
61153;DHT22;47030;50.732;4.286;2022-09-30T05:14:43;6.20;99.90
61153;DHT22;47030;50.732;4.286;2022-09-30T05:17:09;6.30;99.90
61153;DHT22;47030;50.732;4.286;2022-09-30T05:19:35;6.20;99.90
61153;DHT22;47030;50.732;4.286;2022-09-30T05:22:03;6.20;99.90
61153;DHT22;47030;50.732;4.286;2022-09-30T05:24:28;6.20;99.90
61153;DHT22;47030;50.732;4.286;2022-09-30T05:26:55;6.30;99.90
61153;DHT22;47030;50.732;4.286;2022-09-30T05:29:21;6.30;99.90
61153;DHT22;47030;50.732;4.286;2022-09-30T05:31:46;6.70;99.90
61153;DHT22;47030;50.732;4.286;2022-09-30T05:34:12;6.30;99.90
61153;DHT22;47030;50.732;4.286;2022-09-30T05:36:41;6.40;99.90
61153;DHT22;47030;50.732;4.286;2022-09-30T05:39:09;6.30;99.90
61153;DHT22;47030;50.732;4.286;2022-09-30T05:41:35;6.80;99.90
61153;DHT22;47030;50.732;4.286;2022-09-30T05:44:01;6.30;99.90
61153;DHT22;47030;50.732;4.286;2022-09-30T05:46:27;6.30;99.90
61153;DHT22;47030;50.732;4.286;2022-09-30T05:48:53;6.40;99.90
61153;DHT22;47030;50.732;4.286;2022-09-30T05:51:22;6.40;99.90
61153;DHT22;47030;50.732;4.286;2022-09-30T05:53:50;6.60;99.90
61153;DHT22;47030;50.732;4.286;2022-09-30T05:56:19;6.50;99.90
61153;DHT22;47030;50.732;4.286;2022-09-30T05:58:45;6.50;99.90
61153;DHT22;47030;50.732;4.286;2022-09-30T06:01:13;6.60;99.90
61153;DHT22;47030;50.732;4.286;2022-09-30T06:03:39;6.50;99.90
61153;DHT22;47030;50.732;4.286;2022-09-30T06:06:15;6.60;99.90
61153;DHT22;47030;50.732;4.286;2022-09-30T06:08:45;6.80;99.90
61153;DHT22;47030;50.732;4.286;2022-09-30T06:11:14;6.60;99.90
61153;DHT22;47030;50.732;4.286;2022-09-30T06:13:44;6.70;99.90
61153;DHT22;47030;50.732;4.286;2022-09-30T06:16:14;6.90;99.90
61153;DHT22;47030;50.732;4.286;2022-09-30T06:18:40;7.30;99.90
61153;DHT22;47030;50.732;4.286;2022-09-30T06:21:07;7.10;99.90
61153;DHT22;47030;50.732;4.286;2022-09-30T06:23:41;7.00;99.90
61153;DHT22;47030;50.732;4.286;2022-09-30T06:26:09;7.30;99.90
61153;DHT22;47030;50.732;4.286;2022-09-30T06:28:36;7.40;99.90
61153;DHT22;47030;50.732;4.286;2022-09-30T06:31:03;7.40;99.90
61153;DHT22;47030;50.732;4.286;2022-09-30T06:33:30;7.50;99.90
61153;DHT22;47030;50.732;4.286;2022-09-30T06:35:56;7.60;99.90
61153;DHT22;47030;50.732;4.286;2022-09-30T06:38:22;7.70;99.90
61153;DHT22;47030;50.732;4.286;2022-09-30T06:40:51;7.80;99.90
61153;DHT22;47030;50.732;4.286;2022-09-30T06:43:21;7.90;99.90
61153;DHT22;47030;50.732;4.286;2022-09-30T06:45:49;8.00;99.90
61153;DHT22;47030;50.732;4.286;2022-09-30T06:48:16;8.20;99.90
61153;DHT22;47030;50.732;4.286;2022-09-30T06:50:46;8.30;99.90
61153;DHT22;47030;50.732;4.286;2022-09-30T06:53:12;8.30;99.90
61153;DHT22;47030;50.732;4.286;2022-09-30T06:55:38;8.20;99.90
61153;DHT22;47030;50.732;4.286;2022-09-30T06:58:08;9.80;99.90
61153;DHT22;47030;50.732;4.286;2022-09-30T07:00:40;11.90;99.90
61153;DHT22;47030;50.732;4.286;2022-09-30T07:03:06;14.40;96.60
61153;DHT22;47030;50.732;4.286;2022-09-30T07:05:36;16.40;90.80
61153;DHT22;47030;50.732;4.286;2022-09-30T07:08:07;17.00;86.50
61153;DHT22;47030;50.732;4.286;2022-09-30T07:10:35;16.60;86.20
61153;DHT22;47030;50.732;4.286;2022-09-30T07:13:00;15.80;88.00
61153;DHT22;47030;50.732;4.286;2022-09-30T07:15:34;15.60;90.00
61153;DHT22;47030;50.732;4.286;2022-09-30T07:18:02;15.50;90.40
61153;DHT22;47030;50.732;4.286;2022-09-30T07:20:30;15.10;91.00
61153;DHT22;47030;50.732;4.286;2022-09-30T07:22:56;14.70;92.00
61153;DHT22;47030;50.732;4.286;2022-09-30T07:25:23;14.20;93.20
61153;DHT22;47030;50.732;4.286;2022-09-30T07:27:49;13.80;94.50
61153;DHT22;47030;50.732;4.286;2022-09-30T07:30:14;13.70;95.20
61153;DHT22;47030;50.732;4.286;2022-09-30T07:32:40;13.50;95.80
61153;DHT22;47030;50.732;4.286;2022-09-30T07:35:06;13.50;96.50
61153;DHT22;47030;50.732;4.286;2022-09-30T07:37:32;13.80;96.60
61153;DHT22;47030;50.732;4.286;2022-09-30T07:40:03;13.80;96.80
61153;DHT22;47030;50.732;4.286;2022-09-30T07:42:31;14.20;97.10
61153;DHT22;47030;50.732;4.286;2022-09-30T07:44:57;14.70;96.60
61153;DHT22;47030;50.732;4.286;2022-09-30T07:47:23;15.80;95.10
61153;DHT22;47030;50.732;4.286;2022-09-30T07:49:51;17.90;91.70
61153;DHT22;47030;50.732;4.286;2022-09-30T07:52:17;20.30;84.70
61153;DHT22;47030;50.732;4.286;2022-09-30T07:54:43;22.40;75.80
61153;DHT22;47030;50.732;4.286;2022-09-30T07:57:09;24.00;67.50
61153;DHT22;47030;50.732;4.286;2022-09-30T07:59:37;26.00;61.00
61153;DHT22;47030;50.732;4.286;2022-09-30T08:02:10;27.70;54.80
61153;DHT22;47030;50.732;4.286;2022-09-30T08:04:40;28.90;50.10
61153;DHT22;47030;50.732;4.286;2022-09-30T08:07:05;30.30;46.30
61153;DHT22;47030;50.732;4.286;2022-09-30T08:09:31;30.70;44.40
61153;DHT22;47030;50.732;4.286;2022-09-30T08:11:57;31.30;43.20
61153;DHT22;47030;50.732;4.286;2022-09-30T08:14:26;31.00;42.40
61153;DHT22;47030;50.732;4.286;2022-09-30T08:16:52;30.90;42.50
61153;DHT22;47030;50.732;4.286;2022-09-30T08:19:22;31.30;41.10
61153;DHT22;47030;50.732;4.286;2022-09-30T08:21:48;31.80;41.10
61153;DHT22;47030;50.732;4.286;2022-09-30T08:24:14;32.50;38.60
61153;DHT22;47030;50.732;4.286;2022-09-30T08:26:51;33.30;38.80
61153;DHT22;47030;50.732;4.286;2022-09-30T08:29:17;33.90;38.00
61153;DHT22;47030;50.732;4.286;2022-09-30T08:31:42;34.50;37.10
61153;DHT22;47030;50.732;4.286;2022-09-30T08:34:09;35.20;36.30
61153;DHT22;47030;50.732;4.286;2022-09-30T08:36:35;35.70;35.30
61153;DHT22;47030;50.732;4.286;2022-09-30T08:39:01;36.00;35.40
61153;DHT22;47030;50.732;4.286;2022-09-30T08:41:48;35.40;34.80
61153;DHT22;47030;50.732;4.286;2022-09-30T08:44:33;35.10;35.20
61153;DHT22;47030;50.732;4.286;2022-09-30T08:49:57;33.70;35.40
61153;DHT22;47030;50.732;4.286;2022-09-30T08:52:32;33.70;36.30
61153;DHT22;47030;50.732;4.286;2022-09-30T08:55:00;34.50;35.50
61153;DHT22;47030;50.732;4.286;2022-09-30T08:57:35;35.20;34.40
61153;DHT22;47030;50.732;4.286;2022-09-30T09:00:05;35.50;34.40
61153;DHT22;47030;50.732;4.286;2022-09-30T09:02:47;35.70;33.30
61153;DHT22;47030;50.732;4.286;2022-09-30T09:08:48;36.20;33.00
61153;DHT22;47030;50.732;4.286;2022-09-30T09:20:14;37.70;32.50
61153;DHT22;47030;50.732;4.286;2022-09-30T09:22:41;37.00;31.80
61153;DHT22;47030;50.732;4.286;2022-09-30T09:25:24;37.00;32.20
61153;DHT22;47030;50.732;4.286;2022-09-30T09:28:02;37.00;32.10
61153;DHT22;47030;50.732;4.286;2022-09-30T09:30:42;37.10;31.90
61153;DHT22;47030;50.732;4.286;2022-09-30T09:33:18;37.20;32.00
61153;DHT22;47030;50.732;4.286;2022-09-30T09:36:44;37.20;32.00
61153;DHT22;47030;50.732;4.286;2022-09-30T09:39:24;37.40;32.20
61153;DHT22;47030;50.732;4.286;2022-09-30T09:44:32;37.20;31.60
61153;DHT22;47030;50.732;4.286;2022-09-30T09:49:44;36.50;32.90
61153;DHT22;47030;50.732;4.286;2022-09-30T09:54:45;36.00;32.80
61153;DHT22;47030;50.732;4.286;2022-09-30T09:57:16;36.20;33.30
61153;DHT22;47030;50.732;4.286;2022-09-30T10:02:58;36.40;33.10
61153;DHT22;47030;50.732;4.286;2022-09-30T10:05:27;36.50;32.20
61153;DHT22;47030;50.732;4.286;2022-09-30T10:08:16;35.70;32.30
61153;DHT22;47030;50.732;4.286;2022-09-30T10:15:51;33.70;34.30
61153;DHT22;47030;50.732;4.286;2022-09-30T10:18:24;33.50;34.70
61153;DHT22;47030;50.732;4.286;2022-09-30T10:20:53;33.50;34.40
61153;DHT22;47030;50.732;4.286;2022-09-30T10:23:24;33.10;34.70
61153;DHT22;47030;50.732;4.286;2022-09-30T10:26:09;32.70;35.80
61153;DHT22;47030;50.732;4.286;2022-09-30T10:29:01;33.00;35.40
61153;DHT22;47030;50.732;4.286;2022-09-30T10:31:41;32.70;35.20
61153;DHT22;47030;50.732;4.286;2022-09-30T10:36:44;32.40;35.10
61153;DHT22;47030;50.732;4.286;2022-09-30T10:39:34;31.90;35.40
61153;DHT22;47030;50.732;4.286;2022-09-30T10:42:03;31.50;36.60
61153;DHT22;47030;50.732;4.286;2022-09-30T10:44:42;31.00;38.20
61153;DHT22;47030;50.732;4.286;2022-09-30T10:47:17;29.90;38.10
61153;DHT22;47030;50.732;4.286;2022-09-30T10:52:24;29.10;40.80
61153;DHT22;47030;50.732;4.286;2022-09-30T10:54:53;28.50;39.00
61153;DHT22;47030;50.732;4.286;2022-09-30T10:57:27;27.80;40.60
61153;DHT22;47030;50.732;4.286;2022-09-30T11:00:06;27.30;40.90
61153;DHT22;47030;50.732;4.286;2022-09-30T11:05:24;26.80;43.60
61153;DHT22;47030;50.732;4.286;2022-09-30T11:13:30;26.20;44.80
61153;DHT22;47030;50.732;4.286;2022-09-30T11:24:16;25.80;46.30
61153;DHT22;47030;50.732;4.286;2022-09-30T11:32:39;25.60;46.20
61153;DHT22;47030;50.732;4.286;2022-09-30T11:38:00;24.70;44.80
61153;DHT22;47030;50.732;4.286;2022-09-30T11:40:54;24.00;48.20
61153;DHT22;47030;50.732;4.286;2022-09-30T11:49:21;23.50;49.30
61153;DHT22;47030;50.732;4.286;2022-09-30T11:57:57;22.50;51.90
61153;DHT22;47030;50.732;4.286;2022-09-30T12:00:24;22.40;52.20
61153;DHT22;47030;50.732;4.286;2022-09-30T12:02:53;22.90;52.70
61153;DHT22;47030;50.732;4.286;2022-09-30T12:05:35;23.30;49.40
61153;DHT22;47030;50.732;4.286;2022-09-30T12:08:15;23.70;49.10
61153;DHT22;47030;50.732;4.286;2022-09-30T12:10:47;24.10;49.40
61153;DHT22;47030;50.732;4.286;2022-09-30T12:13:28;23.90;46.80
61153;DHT22;47030;50.732;4.286;2022-09-30T12:15:56;23.20;48.90
61153;DHT22;47030;50.732;4.286;2022-09-30T12:18:31;22.70;49.60
61153;DHT22;47030;50.732;4.286;2022-09-30T12:21:11;22.30;52.50
61153;DHT22;47030;50.732;4.286;2022-09-30T12:23:45;22.50;51.90
61153;DHT22;47030;50.732;4.286;2022-09-30T12:26:13;22.60;49.50
61153;DHT22;47030;50.732;4.286;2022-09-30T12:28:51;22.90;50.40
61153;DHT22;47030;50.732;4.286;2022-09-30T12:34:37;22.70;49.40
61153;DHT22;47030;50.732;4.286;2022-09-30T12:43:14;22.00;49.90
61153;DHT22;47030;50.732;4.286;2022-09-30T12:45:56;21.80;51.80
61153;DHT22;47030;50.732;4.286;2022-09-30T12:48:37;21.60;53.50
61153;DHT22;47030;50.732;4.286;2022-09-30T12:51:06;21.50;53.90
61153;DHT22;47030;50.732;4.286;2022-09-30T12:53:37;21.50;54.20
61153;DHT22;47030;50.732;4.286;2022-09-30T12:56:05;21.30;53.40
61153;DHT22;47030;50.732;4.286;2022-09-30T12:58:57;21.00;55.00
61153;DHT22;47030;50.732;4.286;2022-09-30T13:01:27;20.90;56.20
61153;DHT22;47030;50.732;4.286;2022-09-30T13:06:26;21.30;55.70
61153;DHT22;47030;50.732;4.286;2022-09-30T13:14:28;21.50;55.00
61153;DHT22;47030;50.732;4.286;2022-09-30T13:19:55;20.80;55.00
61153;DHT22;47030;50.732;4.286;2022-09-30T13:30:27;20.70;57.70
61153;DHT22;47030;50.732;4.286;2022-09-30T13:35:35;20.80;56.20
61153;DHT22;47030;50.732;4.286;2022-09-30T13:46:05;20.80;55.20
61153;DHT22;47030;50.732;4.286;2022-09-30T13:48:35;20.50;56.40
61153;DHT22;47030;50.732;4.286;2022-09-30T13:51:10;20.60;58.20
61153;DHT22;47030;50.732;4.286;2022-09-30T13:53:47;20.70;57.70
61153;DHT22;47030;50.732;4.286;2022-09-30T13:56:20;20.80;57.90
61153;DHT22;47030;50.732;4.286;2022-09-30T14:04:23;21.00;54.60
61153;DHT22;47030;50.732;4.286;2022-09-30T14:18:27;20.20;58.00
61153;DHT22;47030;50.732;4.286;2022-09-30T14:23:23;20.50;57.90
61153;DHT22;47030;50.732;4.286;2022-09-30T14:29:06;20.80;56.50
61153;DHT22;47030;50.732;4.286;2022-09-30T14:31:46;20.70;56.10
61153;DHT22;47030;50.732;4.286;2022-09-30T14:34:17;20.60;58.20
61153;DHT22;47030;50.732;4.286;2022-09-30T14:36:46;20.30;58.40
61153;DHT22;47030;50.732;4.286;2022-09-30T14:39:25;20.20;58.70
61153;DHT22;47030;50.732;4.286;2022-09-30T14:41:58;20.20;58.30
61153;DHT22;47030;50.732;4.286;2022-09-30T14:44:31;20.10;60.30
61153;DHT22;47030;50.732;4.286;2022-09-30T14:46:59;20.00;57.20
61153;DHT22;47030;50.732;4.286;2022-09-30T14:49:30;19.90;56.90
61153;DHT22;47030;50.732;4.286;2022-09-30T14:52:01;19.80;59.10
61153;DHT22;47030;50.732;4.286;2022-09-30T14:54:29;19.50;59.10
61153;DHT22;47030;50.732;4.286;2022-09-30T14:56:57;19.40;58.70
61153;DHT22;47030;50.732;4.286;2022-09-30T14:59:29;19.20;59.00
61153;DHT22;47030;50.732;4.286;2022-09-30T15:02:18;19.00;59.80
61153;DHT22;47030;50.732;4.286;2022-09-30T15:04:52;18.80;60.70
61153;DHT22;47030;50.732;4.286;2022-09-30T15:07:21;18.80;60.50
61153;DHT22;47030;50.732;4.286;2022-09-30T15:09:47;18.70;61.10
61153;DHT22;47030;50.732;4.286;2022-09-30T15:12:20;18.70;62.00
61153;DHT22;47030;50.732;4.286;2022-09-30T15:17:22;18.40;62.80
61153;DHT22;47030;50.732;4.286;2022-09-30T15:19:49;18.40;63.40
61153;DHT22;47030;50.732;4.286;2022-09-30T15:22:19;18.50;62.30
61153;DHT22;47030;50.732;4.286;2022-09-30T15:24:46;18.50;62.90
61153;DHT22;47030;50.732;4.286;2022-09-30T15:27:31;18.40;62.80
61153;DHT22;47030;50.732;4.286;2022-09-30T15:30:20;18.30;62.20
61153;DHT22;47030;50.732;4.286;2022-09-30T15:32:56;18.30;62.60
61153;DHT22;47030;50.732;4.286;2022-09-30T15:35:23;18.10;63.00
61153;DHT22;47030;50.732;4.286;2022-09-30T15:37:52;18.00;63.90
61153;DHT22;47030;50.732;4.286;2022-09-30T15:40:22;18.00;63.70
61153;DHT22;47030;50.732;4.286;2022-09-30T15:43:08;17.90;64.30
61153;DHT22;47030;50.732;4.286;2022-09-30T15:45:40;17.70;64.50
61153;DHT22;47030;50.732;4.286;2022-09-30T15:50:39;17.60;65.00
61153;DHT22;47030;50.732;4.286;2022-09-30T15:53:16;17.50;65.60
61153;DHT22;47030;50.732;4.286;2022-09-30T15:55:47;17.40;66.50
61153;DHT22;47030;50.732;4.286;2022-09-30T16:01:18;17.20;66.50
61153;DHT22;47030;50.732;4.286;2022-09-30T16:03:53;17.10;67.20
61153;DHT22;47030;50.732;4.286;2022-09-30T16:09:06;17.00;67.90
61153;DHT22;47030;50.732;4.286;2022-09-30T16:11:42;16.80;68.40
61153;DHT22;47030;50.732;4.286;2022-09-30T16:14:25;16.80;67.90
61153;DHT22;47030;50.732;4.286;2022-09-30T16:16:57;16.70;68.30
61153;DHT22;47030;50.732;4.286;2022-09-30T16:19:24;16.60;68.90
61153;DHT22;47030;50.732;4.286;2022-09-30T16:21:54;16.40;69.30
61153;DHT22;47030;50.732;4.286;2022-09-30T16:26:54;16.30;70.50
61153;DHT22;47030;50.732;4.286;2022-09-30T16:29:26;16.30;70.70
61153;DHT22;47030;50.732;4.286;2022-09-30T16:31:54;16.30;70.50
61153;DHT22;47030;50.732;4.286;2022-09-30T16:34:39;16.10;70.60
61153;DHT22;47030;50.732;4.286;2022-09-30T16:37:23;16.00;71.40
61153;DHT22;47030;50.732;4.286;2022-09-30T16:39:49;16.00;71.20
61153;DHT22;47030;50.732;4.286;2022-09-30T16:42:15;15.50;71.70
61153;DHT22;47030;50.732;4.286;2022-09-30T16:44:44;16.00;72.10
61153;DHT22;47030;50.732;4.286;2022-09-30T16:47:12;15.80;72.50
61153;DHT22;47030;50.732;4.286;2022-09-30T16:49:39;15.70;73.00
61153;DHT22;47030;50.732;4.286;2022-09-30T16:52:08;15.70;72.80
61153;DHT22;47030;50.732;4.286;2022-09-30T16:54:35;15.70;73.10
61153;DHT22;47030;50.732;4.286;2022-09-30T16:57:04;15.60;73.70
61153;DHT22;47030;50.732;4.286;2022-09-30T16:59:29;15.60;73.70
61153;DHT22;47030;50.732;4.286;2022-09-30T17:02:02;15.60;73.40
61153;DHT22;47030;50.732;4.286;2022-09-30T17:04:28;15.50;73.60
61153;DHT22;47030;50.732;4.286;2022-09-30T17:06:56;15.50;73.70
61153;DHT22;47030;50.732;4.286;2022-09-30T17:09:26;15.50;74.30
61153;DHT22;47030;50.732;4.286;2022-09-30T17:11:51;15.40;73.70
61153;DHT22;47030;50.732;4.286;2022-09-30T17:14:19;15.50;73.30
61153;DHT22;47030;50.732;4.286;2022-09-30T17:16:45;15.50;73.00
61153;DHT22;47030;50.732;4.286;2022-09-30T17:19:11;15.40;73.80
61153;DHT22;47030;50.732;4.286;2022-09-30T17:21:37;15.40;73.80
61153;DHT22;47030;50.732;4.286;2022-09-30T17:24:03;15.30;73.90
61153;DHT22;47030;50.732;4.286;2022-09-30T17:26:32;15.20;74.60
61153;DHT22;47030;50.732;4.286;2022-09-30T17:28:59;15.20;74.80
61153;DHT22;47030;50.732;4.286;2022-09-30T17:31:24;15.20;74.40
61153;DHT22;47030;50.732;4.286;2022-09-30T17:33:50;15.20;74.60
61153;DHT22;47030;50.732;4.286;2022-09-30T17:36:16;15.10;75.80
61153;DHT22;47030;50.732;4.286;2022-09-30T17:38:43;15.00;75.60
61153;DHT22;47030;50.732;4.286;2022-09-30T17:41:16;14.90;76.00
61153;DHT22;47030;50.732;4.286;2022-09-30T17:44:00;14.80;76.30
61153;DHT22;47030;50.732;4.286;2022-09-30T17:46:39;14.60;77.20
61153;DHT22;47030;50.732;4.286;2022-09-30T17:49:05;14.50;77.80
61153;DHT22;47030;50.732;4.286;2022-09-30T17:51:31;14.40;78.40
61153;DHT22;47030;50.732;4.286;2022-09-30T17:53:59;14.40;78.90
61153;DHT22;47030;50.732;4.286;2022-09-30T17:56:25;14.40;78.40
61153;DHT22;47030;50.732;4.286;2022-09-30T17:58:51;14.50;78.70
61153;DHT22;47030;50.732;4.286;2022-09-30T18:01:19;14.40;79.20
61153;DHT22;47030;50.732;4.286;2022-09-30T18:03:48;14.50;79.10
61153;DHT22;47030;50.732;4.286;2022-09-30T18:06:17;14.50;79.50
61153;DHT22;47030;50.732;4.286;2022-09-30T18:08:50;14.50;79.80
61153;DHT22;47030;50.732;4.286;2022-09-30T18:11:25;14.50;80.10
61153;DHT22;47030;50.732;4.286;2022-09-30T18:13:55;14.60;80.40
61153;DHT22;47030;50.732;4.286;2022-09-30T18:16:24;14.60;80.20
61153;DHT22;47030;50.732;4.286;2022-09-30T18:18:50;14.50;79.80
61153;DHT22;47030;50.732;4.286;2022-09-30T18:21:15;14.50;80.30
61153;DHT22;47030;50.732;4.286;2022-09-30T18:23:41;14.50;80.70
61153;DHT22;47030;50.732;4.286;2022-09-30T18:26:07;14.50;80.90
61153;DHT22;47030;50.732;4.286;2022-09-30T18:28:33;14.50;81.00
61153;DHT22;47030;50.732;4.286;2022-09-30T18:31:04;14.50;80.70
61153;DHT22;47030;50.732;4.286;2022-09-30T18:33:30;14.60;80.90
61153;DHT22;47030;50.732;4.286;2022-09-30T18:35:59;14.60;80.80
61153;DHT22;47030;50.732;4.286;2022-09-30T18:38:24;14.60;81.20
61153;DHT22;47030;50.732;4.286;2022-09-30T18:40:52;14.60;81.10
61153;DHT22;47030;50.732;4.286;2022-09-30T18:43:19;14.70;81.00
61153;DHT22;47030;50.732;4.286;2022-09-30T18:45:55;14.70;80.40
61153;DHT22;47030;50.732;4.286;2022-09-30T18:48:25;14.70;80.40
61153;DHT22;47030;50.732;4.286;2022-09-30T18:50:53;14.70;80.80
61153;DHT22;47030;50.732;4.286;2022-09-30T18:53:22;14.70;81.00
61153;DHT22;47030;50.732;4.286;2022-09-30T18:56:02;14.90;80.40
61153;DHT22;47030;50.732;4.286;2022-09-30T18:58:29;14.90;79.90
61153;DHT22;47030;50.732;4.286;2022-09-30T19:01:00;14.80;80.20
61153;DHT22;47030;50.732;4.286;2022-09-30T19:03:32;14.90;80.20
61153;DHT22;47030;50.732;4.286;2022-09-30T19:06:07;14.80;80.30
61153;DHT22;47030;50.732;4.286;2022-09-30T19:08:43;14.80;80.90
61153;DHT22;47030;50.732;4.286;2022-09-30T19:11:13;14.90;80.20
61153;DHT22;47030;50.732;4.286;2022-09-30T19:13:44;15.00;79.70
61153;DHT22;47030;50.732;4.286;2022-09-30T19:16:14;15.00;80.20
61153;DHT22;47030;50.732;4.286;2022-09-30T19:18:49;14.90;80.30
61153;DHT22;47030;50.732;4.286;2022-09-30T19:21:15;14.90;80.90
61153;DHT22;47030;50.732;4.286;2022-09-30T19:23:53;14.90;80.60
61153;DHT22;47030;50.732;4.286;2022-09-30T19:26:23;15.00;79.70
61153;DHT22;47030;50.732;4.286;2022-09-30T19:28:55;15.00;79.70
61153;DHT22;47030;50.732;4.286;2022-09-30T19:31:21;15.10;79.50
61153;DHT22;47030;50.732;4.286;2022-09-30T19:34:01;15.00;79.60
61153;DHT22;47030;50.732;4.286;2022-09-30T19:36:49;15.10;79.70
61153;DHT22;47030;50.732;4.286;2022-09-30T19:39:17;15.10;79.20
61153;DHT22;47030;50.732;4.286;2022-09-30T19:41:43;15.10;79.10